createdAt,value
2019-03-29T00:01:07.048Z,101943.36
2019-03-29T00:03:35.027Z,101943.25
2019-03-29T00:06:03.216Z,101951.28
2019-03-29T00:08:31.160Z,101945.66
2019-03-29T00:10:59.391Z,101952.31
2019-03-29T00:13:27.003Z,101949.59
2019-03-29T00:15:54.584Z,101950.86
2019-03-29T00:18:22.246Z,101950.20
2019-03-29T00:20:51.138Z,101948.89
2019-03-29T00:23:18.827Z,101943.88
2019-03-29T00:25:46.964Z,101943.25
2019-03-29T00:28:14.527Z,101936.64
2019-03-29T00:30:42.688Z,101946.64
2019-03-29T00:33:10.414Z,101940.17
2019-03-29T00:35:37.964Z,101937.00
2019-03-29T00:38:06.114Z,101934.66
2019-03-29T00:40:33.740Z,101939.66
2019-03-29T00:43:01.499Z,101933.86
2019-03-29T00:45:29.854Z,101940.75
2019-03-29T00:47:57.471Z,101933.47
2019-03-29T00:50:25.183Z,101938.20
2019-03-29T00:52:53.307Z,101934.45
2019-03-29T00:55:21.194Z,101938.59
2019-03-29T00:57:48.778Z,101929.44
2019-03-29T01:00:16.786Z,101927.88
2019-03-29T01:02:45.399Z,101929.52
2019-03-29T01:05:13.427Z,101929.50
2019-03-29T01:07:41.211Z,101928.65
2019-03-29T01:10:09.406Z,101925.34
2019-03-29T01:12:36.997Z,101930.53
2019-03-29T01:15:05.954Z,101924.13
2019-03-29T01:17:33.675Z,101923.36
2019-03-29T01:20:01.778Z,101927.09
2019-03-29T01:22:29.475Z,101926.01
2019-03-29T01:24:57.099Z,101925.02
2019-03-29T01:27:25.236Z,101925.44
2019-03-29T01:29:52.852Z,101921.63
2019-03-29T01:32:21.605Z,101921.41
2019-03-29T01:34:49.585Z,101916.33
2019-03-29T01:37:17.289Z,101915.30
2019-03-29T01:39:45.875Z,101909.55
2019-03-29T01:42:14.090Z,101910.88
2019-03-29T01:44:41.672Z,101903.77
2019-03-29T01:47:09.318Z,101910.10
2019-03-29T01:49:36.935Z,101910.92
2019-03-29T01:52:06.470Z,101908.50
2019-03-29T01:54:34.175Z,101912.77
2019-03-29T01:57:01.740Z,101910.12
2019-03-29T01:59:29.322Z,101904.74
2019-03-29T02:01:56.977Z,101906.03
2019-03-29T02:04:25.123Z,101906.34
2019-03-29T02:06:52.691Z,101906.40
2019-03-29T02:09:20.332Z,101904.33
2019-03-29T02:11:48.478Z,101900.87
2019-03-29T02:14:16.083Z,101900.24
2019-03-29T02:16:43.831Z,101897.38
2019-03-29T02:19:11.423Z,101898.35
2019-03-29T02:21:39.239Z,101900.99
2019-03-29T02:24:06.900Z,101896.77
2019-03-29T02:26:34.917Z,101893.19
2019-03-29T02:29:05.268Z,101887.23
2019-03-29T02:31:33.233Z,101889.77
2019-03-29T02:34:00.815Z,101892.91
2019-03-29T02:36:28.831Z,101894.13
2019-03-29T02:38:58.951Z,101893.97
2019-03-29T02:41:26.432Z,101883.33
2019-03-29T02:43:54.060Z,101886.50
2019-03-29T02:46:21.855Z,101884.10
2019-03-29T02:48:49.546Z,101891.41
2019-03-29T02:51:17.151Z,101885.62
2019-03-29T02:53:44.971Z,101887.03
2019-03-29T02:56:12.917Z,101886.05
2019-03-29T02:58:40.510Z,101885.48
2019-03-29T03:01:08.461Z,101881.17
2019-03-29T03:03:36.358Z,101876.62
2019-03-29T03:06:04.909Z,101883.06
2019-03-29T03:08:33.287Z,101875.82
2019-03-29T03:11:00.980Z,101875.35
2019-03-29T03:13:28.748Z,101881.50
2019-03-29T03:15:56.400Z,101883.49
2019-03-29T03:18:24.374Z,101883.40
2019-03-29T03:20:51.937Z,101888.33
2019-03-29T03:23:19.605Z,101886.70
2019-03-29T03:25:47.245Z,101888.87
2019-03-29T03:28:14.822Z,101884.80
2019-03-29T03:30:42.692Z,101883.80
2019-03-29T03:33:10.831Z,101885.89
2019-03-29T03:35:38.637Z,101884.90
2019-03-29T03:38:06.351Z,101878.57
2019-03-29T03:40:35.243Z,101879.33
2019-03-29T03:43:02.828Z,101884.66
2019-03-29T03:45:31.738Z,101876.03
2019-03-29T03:47:59.770Z,101871.98
2019-03-29T03:50:38.872Z,101875.50
2019-03-29T03:53:06.928Z,101866.89
2019-03-29T03:55:37.683Z,101868.08
2019-03-29T03:58:06.630Z,101864.52
2019-03-29T04:00:53.412Z,101857.88
2019-03-29T04:03:21.346Z,101861.31
2019-03-29T04:05:49.029Z,101856.41
2019-03-29T04:08:17.363Z,101853.45
2019-03-29T04:10:45.098Z,101863.97
2019-03-29T04:13:12.866Z,101857.05
2019-03-29T04:15:40.593Z,101863.55
2019-03-29T04:18:08.332Z,101857.09
2019-03-29T04:20:35.912Z,101852.96
2019-03-29T04:23:03.695Z,101843.92
2019-03-29T04:25:32.339Z,101847.84
2019-03-29T04:28:00.420Z,101848.16
2019-03-29T04:30:28.361Z,101851.21
2019-03-29T04:32:56.078Z,101847.14
2019-03-29T04:35:24.070Z,101850.83
2019-03-29T04:37:51.649Z,101850.24
2019-03-29T04:40:19.259Z,101853.58
2019-03-29T04:42:46.869Z,101846.95
2019-03-29T04:45:14.472Z,101850.80
2019-03-29T04:47:42.222Z,101853.02
2019-03-29T04:50:09.784Z,101852.58
2019-03-29T04:52:37.405Z,101851.97
2019-03-29T04:55:05.539Z,101854.37
2019-03-29T04:57:33.219Z,101853.73
2019-03-29T05:00:00.808Z,101848.19
2019-03-29T05:02:29.559Z,101855.77
2019-03-29T05:04:57.149Z,101861.94
2019-03-29T05:07:24.881Z,101864.73
2019-03-29T05:09:53.080Z,101857.69
2019-03-29T05:12:20.675Z,101859.59
2019-03-29T05:14:48.260Z,101862.41
2019-03-29T05:17:16.003Z,101865.81
2019-03-29T05:19:44.720Z,101862.47
2019-03-29T05:22:12.375Z,101864.29
2019-03-29T05:24:40.327Z,101857.88
2019-03-29T05:27:07.943Z,101860.52
2019-03-29T05:29:35.728Z,101857.63
2019-03-29T05:32:05.105Z,101858.17
2019-03-29T05:34:32.747Z,101860.06
2019-03-29T05:37:00.352Z,101870.72
2019-03-29T05:39:28.521Z,101868.28
2019-03-29T05:41:56.298Z,101872.27
2019-03-29T05:44:23.978Z,101873.02
2019-03-29T05:46:52.223Z,101870.37
2019-03-29T05:49:19.799Z,101872.08
2019-03-29T05:51:47.589Z,101872.69
2019-03-29T05:54:15.184Z,101872.52
2019-03-29T05:56:43.072Z,101870.45
2019-03-29T05:59:10.929Z,101869.42
2019-03-29T06:01:38.590Z,101871.48
2019-03-29T06:04:06.614Z,101861.13
2019-03-29T06:06:34.498Z,101864.78
2019-03-29T06:09:03.876Z,101863.89
2019-03-29T06:11:31.562Z,101862.33
2019-03-29T06:14:00.315Z,101856.48
2019-03-29T06:16:38.483Z,101858.59
2019-03-29T06:18:57.969Z,101863.27
2019-03-29T06:21:25.636Z,101860.94
2019-03-29T06:23:53.291Z,101861.82
2019-03-29T06:26:20.920Z,101864.42
2019-03-29T06:28:49.784Z,101863.19
2019-03-29T06:31:17.840Z,101858.52
2019-03-29T06:33:45.857Z,101857.25
2019-03-29T06:36:15.851Z,101854.58
2019-03-29T06:38:45.952Z,101851.06
2019-03-29T06:41:13.568Z,101854.59
2019-03-29T06:43:41.237Z,101850.66
2019-03-29T06:46:08.886Z,101847.84
2019-03-29T06:48:36.552Z,101851.09
2019-03-29T06:51:04.732Z,101851.55
2019-03-29T06:53:34.303Z,101849.77
2019-03-29T06:56:01.912Z,101842.30
2019-03-29T06:58:30.899Z,101838.52
2019-03-29T07:00:59.906Z,101845.16
2019-03-29T07:03:29.260Z,101852.41
2019-03-29T07:05:56.837Z,101847.28
2019-03-29T07:08:24.715Z,101845.38
2019-03-29T07:10:54.671Z,101841.80
2019-03-29T07:13:22.301Z,101847.06
2019-03-29T07:15:50.036Z,101849.68
2019-03-29T07:18:17.716Z,101842.42
2019-03-29T07:20:45.313Z,101839.75
2019-03-29T07:23:13.819Z,101840.55
2019-03-29T07:25:41.885Z,101842.04
2019-03-29T07:28:09.508Z,101840.31
2019-03-29T07:30:38.636Z,101837.77
2019-03-29T07:33:07.617Z,101837.98
2019-03-29T07:35:35.226Z,101830.47
2019-03-29T07:38:03.012Z,101827.52
2019-03-29T07:40:33.784Z,101828.19
2019-03-29T07:43:03.453Z,101825.67
2019-03-29T07:45:31.665Z,101823.53
2019-03-29T07:47:59.226Z,101826.20
2019-03-29T07:50:26.818Z,101821.23
2019-03-29T07:52:54.871Z,101826.92
2019-03-29T07:55:22.477Z,101826.08
2019-03-29T07:57:50.065Z,101811.88
2019-03-29T08:00:20.401Z,101816.90
2019-03-29T08:02:52.608Z,101816.77
2019-03-29T08:05:21.917Z,101816.27
2019-03-29T08:07:50.004Z,101815.41
2019-03-29T08:10:25.776Z,101808.88
2019-03-29T08:12:49.235Z,101816.15
2019-03-29T08:15:17.191Z,101806.95
2019-03-29T08:17:44.917Z,101814.73
2019-03-29T08:20:38.897Z,101822.97
2019-03-29T08:22:42.484Z,101813.83
2019-03-29T08:25:10.338Z,101820.09
2019-03-29T08:27:37.929Z,101812.41
2019-03-29T08:30:06.478Z,101807.95
2019-03-29T08:32:34.360Z,101812.25
2019-03-29T08:35:01.961Z,101810.96
2019-03-29T08:37:31.052Z,101808.45
2019-03-29T08:39:58.748Z,101809.27
2019-03-29T08:42:26.315Z,101810.85
2019-03-29T08:44:54.291Z,101801.75
2019-03-29T08:47:22.105Z,101806.78
2019-03-29T08:49:49.798Z,101811.14
2019-03-29T08:52:17.374Z,101811.88
2019-03-29T08:54:45.154Z,101813.19
2019-03-29T08:57:14.529Z,101803.54
2019-03-29T08:59:43.162Z,101798.25
2019-03-29T09:02:10.950Z,101795.39
2019-03-29T09:04:38.522Z,101795.64
2019-03-29T09:07:06.269Z,101793.34
2019-03-29T09:09:34.130Z,101793.95
2019-03-29T09:12:13.686Z,101786.46
2019-03-29T09:14:33.370Z,101771.48
2019-03-29T09:17:01.099Z,101785.66
2019-03-29T09:19:29.813Z,101784.58
2019-03-29T09:21:57.411Z,101777.69
2019-03-29T09:24:25.063Z,101777.39
2019-03-29T09:26:52.673Z,101774.11
2019-03-29T09:29:22.984Z,101783.40
2019-03-29T09:31:50.646Z,101783.76
2019-03-29T09:34:18.233Z,101780.13
2019-03-29T09:36:46.235Z,101780.50
2019-03-29T09:39:14.057Z,101777.81
2019-03-29T09:41:42.031Z,101772.44
2019-03-29T09:44:10.340Z,101776.50
2019-03-29T09:46:40.454Z,101776.27
2019-03-29T09:49:08.610Z,101770.36
2019-03-29T09:51:38.050Z,101758.68
2019-03-29T09:54:05.855Z,101761.47
2019-03-29T09:56:39.179Z,101764.73
2019-03-29T09:59:03.189Z,101767.02
2019-03-29T10:01:32.123Z,101759.72
2019-03-29T10:03:59.904Z,101760.16
2019-03-29T10:06:27.893Z,101764.63
2019-03-29T10:08:55.949Z,101759.73
2019-03-29T10:11:23.866Z,101759.67
2019-03-29T10:13:51.567Z,101759.37
2019-03-29T10:16:19.288Z,101757.08
2019-03-29T10:18:47.250Z,101756.55
2019-03-29T10:21:17.154Z,101746.16
2019-03-29T10:23:44.551Z,101749.86
2019-03-29T10:26:12.115Z,101745.63
2019-03-29T10:28:39.740Z,101744.41
2019-03-29T10:31:07.452Z,101742.42
2019-03-29T10:33:35.612Z,101741.98
2019-03-29T10:36:03.415Z,101743.71
2019-03-29T10:38:31.087Z,101740.88
2019-03-29T10:40:58.677Z,101737.83
2019-03-29T10:43:26.273Z,101736.56
2019-03-29T10:45:55.093Z,101732.27
2019-03-29T10:48:23.043Z,101727.45
2019-03-29T10:50:50.735Z,101730.55
2019-03-29T10:53:19.604Z,101717.80
2019-03-29T10:55:48.511Z,101716.01
2019-03-29T10:58:17.923Z,101711.89
2019-03-29T11:00:46.020Z,101709.94
2019-03-29T11:03:14.306Z,101703.97
2019-03-29T11:05:42.166Z,101695.77
2019-03-29T11:08:12.147Z,101691.16
2019-03-29T11:10:39.590Z,101684.78
2019-03-29T11:13:13.159Z,101697.38
2019-03-29T11:15:36.907Z,101686.58
2019-03-29T11:18:05.893Z,101677.82
2019-03-29T11:20:33.458Z,101674.80
2019-03-29T11:23:01.116Z,101678.14
2019-03-29T11:25:30.593Z,101667.34
2019-03-29T11:27:58.226Z,101669.75
2019-03-29T11:30:25.950Z,101663.38
2019-03-29T11:32:53.857Z,101654.55
2019-03-29T11:35:21.492Z,101663.11
2019-03-29T11:37:49.229Z,101658.62
2019-03-29T11:40:17.321Z,101646.45
2019-03-29T11:42:45.106Z,101647.30
2019-03-29T11:45:13.078Z,101640.67
2019-03-29T11:47:41.078Z,101643.97
2019-03-29T11:50:09.003Z,101642.34
2019-03-29T11:52:36.760Z,101634.60
2019-03-29T11:55:05.166Z,101624.47
2019-03-29T11:57:34.104Z,101631.22
2019-03-29T12:00:01.983Z,101626.55
2019-03-29T12:02:31.518Z,101625.11
2019-03-29T12:04:59.666Z,101623.84
2019-03-29T12:07:27.310Z,101627.63
2019-03-29T12:09:55.264Z,101621.58
2019-03-29T12:12:23.004Z,101615.75
2019-03-29T12:14:50.633Z,101619.51
2019-03-29T12:17:18.408Z,101612.56
2019-03-29T12:19:48.242Z,101615.92
2019-03-29T12:22:17.402Z,101614.39
2019-03-29T12:24:45.018Z,101607.32
2019-03-29T12:27:13.115Z,101598.16
2019-03-29T12:29:42.079Z,101608.12
2019-03-29T12:32:09.781Z,101597.27
2019-03-29T12:34:37.827Z,101606.39
2019-03-29T12:37:05.633Z,101598.91
2019-03-29T12:39:33.317Z,101592.52
2019-03-29T12:42:02.141Z,101584.78
2019-03-29T12:44:30.877Z,101580.38
2019-03-29T12:46:58.459Z,101574.30
2019-03-29T12:49:26.527Z,101576.63
2019-03-29T12:51:54.784Z,101573.97
2019-03-29T12:54:24.141Z,101561.79
2019-03-29T12:56:55.398Z,101549.20
2019-03-29T12:59:28.898Z,101551.46
2019-03-29T13:01:57.512Z,101549.00
2019-03-29T13:04:25.291Z,101554.14
2019-03-29T13:06:53.324Z,101546.89
2019-03-29T13:09:21.159Z,101547.31
2019-03-29T13:11:48.879Z,101541.17
2019-03-29T13:14:16.544Z,101535.05
2019-03-29T13:16:44.182Z,101534.41
2019-03-29T13:19:12.231Z,101522.50
2019-03-29T13:21:39.882Z,101521.78
2019-03-29T13:24:07.812Z,101507.87
2019-03-29T13:26:35.449Z,101498.78
2019-03-29T13:29:03.361Z,101497.84
2019-03-29T13:31:31.100Z,101491.59
2019-03-29T13:33:58.911Z,101489.81
2019-03-29T13:36:26.954Z,101489.41
2019-03-29T13:38:56.528Z,101481.16
2019-03-29T13:41:24.249Z,101484.34
2019-03-29T13:43:51.865Z,101483.63
2019-03-29T13:46:22.022Z,101466.11
2019-03-29T13:48:49.719Z,101463.81
2019-03-29T13:51:17.334Z,101460.55
2019-03-29T13:53:45.202Z,101459.03
2019-03-29T13:56:12.953Z,101456.43
2019-03-29T13:58:40.564Z,101449.53
2019-03-29T14:01:08.726Z,101438.87
2019-03-29T14:03:36.359Z,101440.78
2019-03-29T14:06:04.049Z,101432.72
2019-03-29T14:08:31.894Z,101434.69
2019-03-29T14:11:00.037Z,101430.44
2019-03-29T14:13:27.884Z,101434.43
2019-03-29T14:15:55.981Z,101428.69
2019-03-29T14:18:23.907Z,101421.73
2019-03-29T14:20:51.758Z,101419.11
2019-03-29T14:23:19.788Z,101411.44
2019-03-29T14:25:47.892Z,101406.66
2019-03-29T14:28:15.616Z,101403.83
2019-03-29T14:30:43.685Z,101402.60
2019-03-29T14:33:11.339Z,101400.18
2019-03-29T14:35:38.958Z,101403.94
2019-03-29T14:38:06.790Z,101386.77
2019-03-29T14:40:34.499Z,101391.95
2019-03-29T14:43:03.597Z,101391.97
2019-03-29T14:45:31.337Z,101389.30
2019-03-29T14:47:58.955Z,101377.39
2019-03-29T14:50:27.993Z,101377.34
2019-03-29T14:52:55.626Z,101363.66
2019-03-29T14:55:23.790Z,101360.92
2019-03-29T14:57:52.494Z,101359.22
2019-03-29T15:00:36.642Z,101360.89
2019-03-29T15:03:04.396Z,101351.40
2019-03-29T15:05:35.295Z,101350.65
2019-03-29T15:08:03.203Z,101338.67
2019-03-29T15:10:31.101Z,101336.52
2019-03-29T15:12:58.948Z,101329.73
2019-03-29T15:15:26.819Z,101327.66
2019-03-29T15:17:54.916Z,101324.66
2019-03-29T15:20:23.622Z,101328.60
2019-03-29T15:22:51.701Z,101328.62
2019-03-29T15:25:19.489Z,101320.63
2019-03-29T15:27:47.073Z,101315.70
2019-03-29T15:30:14.802Z,101319.67
2019-03-29T15:32:42.405Z,101321.44
2019-03-29T15:35:10.265Z,101311.53
2019-03-29T15:37:37.882Z,101312.31
2019-03-29T15:40:06.975Z,101316.09
2019-03-29T15:42:34.590Z,101309.73
2019-03-29T15:45:19.251Z,101311.41
2019-03-29T15:47:35.439Z,101317.43
2019-03-29T15:50:03.977Z,101311.72
2019-03-29T15:52:32.014Z,101307.28
2019-03-29T15:54:59.691Z,101305.76
2019-03-29T15:57:27.836Z,101307.35
2019-03-29T15:59:55.525Z,101309.05
2019-03-29T16:02:24.947Z,101304.23
2019-03-29T16:04:54.761Z,101308.67
2019-03-29T16:07:22.492Z,101300.80
2019-03-29T16:09:50.711Z,101298.70
2019-03-29T16:12:18.420Z,101301.81
2019-03-29T16:14:46.230Z,101303.58
2019-03-29T16:17:14.329Z,101301.43
2019-03-29T16:19:46.334Z,101292.73
2019-03-29T16:22:14.021Z,101293.36
2019-03-29T16:24:41.639Z,101295.56
2019-03-29T16:27:09.386Z,101292.41
2019-03-29T16:29:38.055Z,101288.38
2019-03-29T16:32:05.634Z,101285.98
2019-03-29T16:34:33.297Z,101289.26
2019-03-29T16:37:00.964Z,101292.28
2019-03-29T16:39:28.780Z,101289.69
2019-03-29T16:41:56.510Z,101290.05
2019-03-29T16:44:24.777Z,101285.02
2019-03-29T16:46:52.404Z,101282.63
2019-03-29T16:49:35.057Z,101284.36
2019-03-29T16:52:02.782Z,101288.66
2019-03-29T16:54:30.538Z,101278.33
2019-03-29T16:56:59.120Z,101276.67
2019-03-29T16:59:27.152Z,101270.05
2019-03-29T17:01:54.906Z,101278.44
2019-03-29T17:04:22.559Z,101277.39
2019-03-29T17:06:50.350Z,101274.32
2019-03-29T17:09:18.184Z,101278.20
2019-03-29T17:11:46.107Z,101275.78
2019-03-29T17:14:14.189Z,101269.29
2019-03-29T17:16:41.923Z,101271.70
2019-03-29T17:19:10.340Z,101281.95
2019-03-29T17:21:37.917Z,101274.61
2019-03-29T17:24:05.537Z,101277.44
2019-03-29T17:26:33.316Z,101273.56
2019-03-29T17:29:01.482Z,101276.25
2019-03-29T17:31:29.157Z,101277.30
2019-03-29T17:33:56.922Z,101271.75
2019-03-29T17:36:25.625Z,101275.52
2019-03-29T17:38:54.582Z,101268.95
2019-03-29T17:41:22.651Z,101278.20
2019-03-29T17:43:54.061Z,101283.45
2019-03-29T17:46:23.757Z,101283.27
2019-03-29T17:48:53.855Z,101279.84
2019-03-29T17:51:21.630Z,101281.59
2019-03-29T17:53:49.398Z,101286.77
2019-03-29T17:56:17.846Z,101289.02
2019-03-29T17:58:45.416Z,101286.69
2019-03-29T18:01:13.066Z,101287.66
2019-03-29T18:03:41.385Z,101292.68
2019-03-29T18:06:08.935Z,101291.45
2019-03-29T18:08:36.683Z,101291.86
2019-03-29T18:11:04.339Z,101297.87
2019-03-29T18:13:32.283Z,101298.52
2019-03-29T18:15:59.861Z,101296.24
2019-03-29T18:18:27.552Z,101291.98
2019-03-29T18:20:55.518Z,101302.45
2019-03-29T18:23:25.025Z,101300.14
2019-03-29T18:25:53.440Z,101297.91
2019-03-29T18:28:21.083Z,101298.75
2019-03-29T18:30:49.073Z,101296.59
2019-03-29T18:33:16.781Z,101297.45
2019-03-29T18:35:44.695Z,101299.02
2019-03-29T18:38:12.558Z,101294.16
2019-03-29T18:40:40.278Z,101290.50
2019-03-29T18:43:09.089Z,101295.80
2019-03-29T18:45:36.851Z,101302.39
2019-03-29T18:48:05.112Z,101304.05
2019-03-29T18:50:32.698Z,101303.75
2019-03-29T18:53:00.353Z,101298.95
2019-03-29T18:55:29.151Z,101299.41
2019-03-29T18:57:56.723Z,101296.94
2019-03-29T19:00:31.872Z,101297.13
2019-03-29T19:02:59.453Z,101300.41
2019-03-29T19:05:27.959Z,101302.88
2019-03-29T19:07:55.829Z,101306.80
2019-03-29T19:10:23.764Z,101300.75
2019-03-29T19:12:51.404Z,101299.56
2019-03-29T19:15:19.531Z,101293.22
2019-03-29T19:17:49.949Z,101297.98
2019-03-29T19:20:27.496Z,101291.81
2019-03-29T19:22:47.711Z,101289.67
2019-03-29T19:25:15.305Z,101288.45
2019-03-29T19:27:44.348Z,101287.61
2019-03-29T19:30:12.452Z,101294.37
2019-03-29T19:32:40.081Z,101292.84
2019-03-29T19:35:08.632Z,101284.25
2019-03-29T19:37:36.375Z,101290.02
2019-03-29T19:40:04.555Z,101283.63
2019-03-29T19:42:32.444Z,101280.72
2019-03-29T19:45:00.372Z,101282.94
2019-03-29T19:47:28.292Z,101283.19
2019-03-29T19:49:57.082Z,101279.91
2019-03-29T19:52:25.171Z,101283.05
2019-03-29T19:54:53.016Z,101283.10
2019-03-29T19:57:20.654Z,101278.28
2019-03-29T19:59:48.870Z,101280.06
2019-03-29T20:02:16.731Z,101276.68
2019-03-29T20:04:44.429Z,101278.05
2019-03-29T20:07:12.112Z,101271.75
2019-03-29T20:09:42.083Z,101277.41
2019-03-29T20:12:09.507Z,101279.91
2019-03-29T20:14:37.882Z,101281.95
2019-03-29T20:17:05.492Z,101280.66
2019-03-29T20:19:33.322Z,101282.80
2019-03-29T20:22:01.529Z,101277.41
2019-03-29T20:24:29.329Z,101276.91
2019-03-29T20:26:56.951Z,101281.20
2019-03-29T20:29:24.698Z,101273.01
2019-03-29T20:31:54.171Z,101272.91
2019-03-29T20:34:21.769Z,101272.40
2019-03-29T20:36:49.843Z,101266.80
2019-03-29T20:39:17.509Z,101264.66
2019-03-29T20:41:45.147Z,101261.81
2019-03-29T20:44:12.938Z,101269.86
2019-03-29T20:46:40.703Z,101257.31
2019-03-29T20:49:08.317Z,101267.23
2019-03-29T20:51:38.874Z,101270.89
2019-03-29T20:54:07.649Z,101261.83
2019-03-29T20:56:35.407Z,101261.75
2019-03-29T20:59:03.170Z,101258.22
2019-03-29T21:01:30.985Z,101260.22
2019-03-29T21:03:58.872Z,101259.70
2019-03-29T21:06:26.734Z,101264.25
2019-03-29T21:08:54.811Z,101257.70
2019-03-29T21:11:22.435Z,101257.06
2019-03-29T21:13:50.644Z,101259.41
2019-03-29T21:16:18.596Z,101257.16
2019-03-29T21:19:00.035Z,101254.48
2019-03-29T21:21:28.110Z,101250.47
2019-03-29T21:23:55.949Z,101250.11
2019-03-29T21:26:23.812Z,101251.14
2019-03-29T21:28:52.985Z,101251.14
2019-03-29T21:31:20.882Z,101248.33
2019-03-29T21:33:48.569Z,101245.47
2019-03-29T21:36:18.201Z,101240.15
2019-03-29T21:38:46.195Z,101235.41
2019-03-29T21:41:14.100Z,101238.94
2019-03-29T21:43:42.264Z,101235.67
2019-03-29T21:46:09.903Z,101232.10
2019-03-29T21:48:37.763Z,101230.56
2019-03-29T21:51:05.801Z,101238.94
2019-03-29T21:53:33.442Z,101233.87
2019-03-29T21:56:01.463Z,101229.27
2019-03-29T21:58:29.552Z,101232.72
2019-03-29T22:00:57.265Z,101231.16
2019-03-29T22:03:25.027Z,101226.02
2019-03-29T22:05:53.742Z,101227.52
2019-03-29T22:08:21.582Z,101224.27
2019-03-29T22:10:49.228Z,101219.98
2019-03-29T22:13:17.433Z,101221.94
2019-03-29T22:15:45.509Z,101221.09
2019-03-29T22:18:13.134Z,101218.58
2019-03-29T22:20:41.144Z,101219.30
2019-03-29T22:23:08.778Z,101212.02
2019-03-29T22:25:36.421Z,101213.58
2019-03-29T22:28:04.670Z,101212.55
2019-03-29T22:30:32.278Z,101219.55
2019-03-29T22:33:03.729Z,101215.70
2019-03-29T22:35:30.300Z,101207.43
2019-03-29T22:37:58.011Z,101207.03
2019-03-29T22:40:25.796Z,101209.69
2019-03-29T22:42:54.631Z,101206.48
2019-03-29T22:45:22.244Z,101201.89
2019-03-29T22:47:49.927Z,101196.27
2019-03-29T22:50:20.233Z,101197.56
2019-03-29T22:52:48.093Z,101190.70
2019-03-29T22:55:16.001Z,101197.35
2019-03-29T22:57:43.802Z,101186.35
2019-03-29T23:00:18.737Z,101184.35
2019-03-29T23:02:48.662Z,101185.45
2019-03-29T23:05:16.268Z,101180.89
2019-03-29T23:07:44.032Z,101183.11
2019-03-29T23:10:12.448Z,101183.55
2019-03-29T23:12:40.226Z,101175.73
2019-03-29T23:15:07.887Z,101172.02
2019-03-29T23:17:35.580Z,101176.18
2019-03-29T23:20:03.262Z,101176.26
2019-03-29T23:22:31.036Z,101175.20
2019-03-29T23:24:58.796Z,101175.59
2019-03-29T23:27:28.001Z,101172.85
2019-03-29T23:29:55.830Z,101171.31
2019-03-29T23:32:23.505Z,101167.03
2019-03-29T23:34:51.774Z,101174.02
2019-03-29T23:37:19.572Z,101175.27
2019-03-29T23:39:47.491Z,101185.67
2019-03-29T23:42:17.288Z,101179.24
2019-03-29T23:44:45.217Z,101184.12
2019-03-29T23:47:13.295Z,101174.92
2019-03-29T23:49:42.432Z,101183.88
2019-03-29T23:52:11.300Z,101177.97
2019-03-29T23:54:38.994Z,101176.73
2019-03-29T23:57:07.720Z,101175.11
2019-03-29T23:59:35.473Z,101174.02
